createdAt,value
2022-08-18T00:00:25.035Z,92376.34
2022-08-18T00:03:27.208Z,92373.22
2022-08-18T00:06:14.565Z,92373.53
2022-08-18T00:09:00.866Z,92376.97
2022-08-18T00:11:45.797Z,92371.97
2022-08-18T00:14:28.828Z,92374.34
2022-08-18T00:17:12.335Z,92371.47
2022-08-18T00:19:55.351Z,92362.78
2022-08-18T00:22:39.939Z,92362.28
2022-08-18T00:25:24.809Z,92357.00
2022-08-18T00:28:07.980Z,92351.75
2022-08-18T00:30:54.033Z,92354.16
2022-08-18T00:33:37.480Z,92344.41
2022-08-18T00:36:20.567Z,92351.84
2022-08-18T00:39:04.380Z,92351.59
2022-08-18T00:41:48.849Z,92351.31
2022-08-18T00:44:31.920Z,92359.47
2022-08-18T00:47:14.947Z,92360.00
2022-08-18T00:50:22.206Z,92359.47
2022-08-18T00:53:18.546Z,92361.81
2022-08-18T00:56:05.874Z,92363.63
2022-08-18T00:58:53.671Z,92365.50
2022-08-18T01:01:38.106Z,92370.75
2022-08-18T01:04:25.322Z,92375.47
2022-08-18T01:07:13.202Z,92393.88
2022-08-18T01:09:59.565Z,92402.25
2022-08-18T01:12:45.279Z,92414.03
2022-08-18T01:15:31.027Z,92417.59
2022-08-18T01:18:33.467Z,92429.13
2022-08-18T01:21:41.143Z,92438.25
2022-08-18T01:24:42.893Z,92451.84
2022-08-18T01:27:30.415Z,92451.25
2022-08-18T01:30:18.322Z,92466.16
2022-08-18T01:33:01.477Z,92473.72
2022-08-18T01:35:49.397Z,92472.88
2022-08-18T01:38:32.808Z,92487.25
2022-08-18T01:41:26.974Z,92489.75
2022-08-18T01:44:13.154Z,92497.16
2022-08-18T01:46:56.353Z,92495.44
2022-08-18T01:49:43.255Z,92503.16
2022-08-18T01:52:26.482Z,92512.47
2022-08-18T01:55:10.573Z,92513.69
2022-08-18T01:57:55.623Z,92509.31
2022-08-18T02:00:38.758Z,92511.72
2022-08-18T02:03:21.851Z,92514.06
2022-08-18T02:06:09.843Z,92516.75
2022-08-18T02:08:53.929Z,92523.31
2022-08-18T02:11:37.143Z,92509.38
2022-08-18T02:14:26.871Z,92518.75
2022-08-18T02:17:12.663Z,92527.09
2022-08-18T02:19:56.167Z,92532.59
2022-08-18T02:22:39.470Z,92532.84
2022-08-18T02:25:23.249Z,92530.03
2022-08-18T02:28:06.909Z,92524.00
2022-08-18T02:30:51.338Z,92507.63
2022-08-18T02:33:34.961Z,92482.69
2022-08-18T02:36:18.278Z,92480.50
2022-08-18T02:39:01.306Z,92471.25
2022-08-18T02:41:44.762Z,92486.94
2022-08-18T02:44:27.819Z,92485.53
2022-08-18T02:47:12.385Z,92475.59
2022-08-18T02:49:55.468Z,92473.66
2022-08-18T02:52:40.488Z,92452.94
2022-08-18T02:55:26.716Z,92456.00
2022-08-18T02:58:09.747Z,92433.13
2022-08-18T03:00:52.872Z,92416.34
2022-08-18T03:03:37.464Z,92410.50
2022-08-18T03:06:21.844Z,92406.97
2022-08-18T03:09:05.994Z,92408.69
2022-08-18T03:11:49.418Z,92396.72
2022-08-18T03:14:32.529Z,92401.25
2022-08-18T03:17:15.943Z,92400.72
2022-08-18T03:20:00.957Z,92394.41
2022-08-18T03:22:45.716Z,92396.16
2022-08-18T03:25:28.763Z,92397.31
2022-08-18T03:28:12.290Z,92383.00
2022-08-18T03:30:55.569Z,92378.66
2022-08-18T03:33:39.261Z,92364.91
2022-08-18T03:36:26.198Z,92367.31
2022-08-18T03:39:11.804Z,92367.47
2022-08-18T03:42:01.139Z,92368.03
2022-08-18T03:44:44.876Z,92366.59
2022-08-18T03:47:28.329Z,92366.75
2022-08-18T03:50:14.101Z,92364.28
2022-08-18T03:52:59.655Z,92369.84
2022-08-18T03:55:43.164Z,92362.84
2022-08-18T03:58:26.272Z,92387.69
2022-08-18T04:01:09.388Z,92393.28
2022-08-18T04:03:56.645Z,92402.91
2022-08-18T04:06:43.991Z,92400.53
2022-08-18T04:09:31.046Z,92404.00
2022-08-18T04:12:17.363Z,92399.66
2022-08-18T04:15:00.683Z,92391.25
2022-08-18T04:17:56.284Z,92394.06
2022-08-18T04:20:59.144Z,92395.94
2022-08-18T04:23:43.606Z,92397.31
2022-08-18T04:26:28.863Z,92404.78
2022-08-18T04:29:14.080Z,92407.16
2022-08-18T04:31:57.393Z,92408.81
2022-08-18T04:34:40.746Z,92422.44
2022-08-18T04:37:23.830Z,92432.00
2022-08-18T04:40:08.033Z,92432.78
2022-08-18T04:42:52.622Z,92445.16
2022-08-18T04:45:36.428Z,92453.94
2022-08-18T04:48:19.505Z,92449.00
2022-08-18T04:51:08.766Z,92451.69
2022-08-18T04:53:50.985Z,92449.84
2022-08-18T04:56:38.054Z,92444.56
2022-08-18T04:59:22.485Z,92451.09
2022-08-18T05:02:12.693Z,92447.00
2022-08-18T05:04:57.807Z,92450.03
2022-08-18T05:07:45.824Z,92460.88
2022-08-18T05:10:29.098Z,92451.06
2022-08-18T05:13:15.147Z,92454.34
2022-08-18T05:16:16.663Z,92462.22
2022-08-18T05:19:04.503Z,92465.81
2022-08-18T05:21:52.173Z,92450.63
2022-08-18T05:24:37.202Z,92446.06
2022-08-18T05:27:21.414Z,92451.84
2022-08-18T05:30:06.019Z,92459.06
2022-08-18T05:32:50.809Z,92457.63
2022-08-18T05:35:39.407Z,92451.81
2022-08-18T05:38:33.517Z,92466.56
2022-08-18T05:41:28.985Z,92467.09
2022-08-18T05:44:15.908Z,92467.25
2022-08-18T05:47:04.874Z,92459.22
2022-08-18T05:49:50.270Z,92464.13
2022-08-18T05:52:37.713Z,92466.50
2022-08-18T05:55:47.791Z,92480.59
2022-08-18T05:58:35.066Z,92485.16
2022-08-18T06:01:22.211Z,92482.06
2022-08-18T06:04:08.921Z,92467.72
2022-08-18T06:06:55.121Z,92472.06
2022-08-18T06:09:44.283Z,92490.25
2022-08-18T06:12:33.463Z,92499.63
2022-08-18T06:15:26.562Z,92512.19
2022-08-18T06:18:27.097Z,92515.09
2022-08-18T06:21:38.974Z,92517.63
2022-08-18T06:24:32.591Z,92525.19
2022-08-18T06:27:26.175Z,92529.50
2022-08-18T06:30:16.210Z,92529.22
2022-08-18T06:33:11.538Z,92518.72
2022-08-18T06:36:02.790Z,92536.13
2022-08-18T06:38:53.852Z,92545.91
2022-08-18T06:41:43.899Z,92547.03
2022-08-18T06:44:34.663Z,92538.56
2022-08-18T06:47:28.499Z,92543.69
2022-08-18T06:50:21.442Z,92543.59
2022-08-18T06:53:07.397Z,92543.31
2022-08-18T06:56:26.228Z,92539.16
2022-08-18T06:59:24.903Z,92526.81
2022-08-18T07:02:20.632Z,92529.34
2022-08-18T07:05:06.988Z,92545.69
2022-08-18T07:08:15.590Z,92529.38
2022-08-18T07:11:13.874Z,92516.97
2022-08-18T07:14:15.447Z,92514.50
2022-08-18T07:17:12.916Z,92528.03
2022-08-18T07:19:58.705Z,92539.19
2022-08-18T07:22:57.360Z,92524.97
2022-08-18T07:25:45.655Z,92529.09
2022-08-18T07:28:31.114Z,92538.22
2022-08-18T07:31:25.949Z,92535.75
2022-08-18T07:34:14.217Z,92547.56
2022-08-18T07:37:09.095Z,92553.34
2022-08-18T07:39:58.146Z,92552.09
2022-08-18T07:43:00.780Z,92552.69
2022-08-18T07:45:47.419Z,92541.53
2022-08-18T07:48:40.170Z,92537.19
2022-08-18T07:51:33.843Z,92535.72
2022-08-18T07:54:55.082Z,92528.56
2022-08-18T07:57:47.811Z,92523.53
2022-08-18T08:00:57.691Z,92529.66
2022-08-18T08:03:46.065Z,92524.84
2022-08-18T08:06:40.142Z,92513.78
2022-08-18T08:09:30.922Z,92502.72
2022-08-18T08:12:24.390Z,92486.56
2022-08-18T08:15:18.721Z,92471.28
2022-08-18T08:18:22.562Z,92450.75
2022-08-18T08:21:10.960Z,92443.84
2022-08-18T08:24:00.229Z,92440.84
2022-08-18T08:26:53.843Z,92433.78
2022-08-18T08:29:50.035Z,92418.06
2022-08-18T08:32:35.852Z,92415.09
2022-08-18T08:35:49.504Z,92408.59
2022-08-18T08:38:42.881Z,92421.09
2022-08-18T08:41:37.529Z,92423.84
2022-08-18T08:44:26.552Z,92425.13
2022-08-18T08:47:17.598Z,92412.75
2022-08-18T08:50:13.184Z,92403.13
2022-08-18T08:53:00.643Z,92420.59
2022-08-18T08:55:49.404Z,92418.41
2022-08-18T08:58:40.816Z,92440.97
2022-08-18T09:01:31.512Z,92441.41
2022-08-18T09:04:31.479Z,92427.84
2022-08-18T09:07:29.697Z,92426.41
2022-08-18T09:10:44.754Z,92420.47
2022-08-18T09:13:55.244Z,92432.22
2022-08-18T09:16:50.442Z,92438.13
2022-08-18T09:19:53.343Z,92435.09
2022-08-18T09:22:48.411Z,92432.06
2022-08-18T09:25:45.230Z,92430.41
2022-08-18T09:28:56.463Z,92415.25
2022-08-18T09:31:43.826Z,92416.63
2022-08-18T09:38:12.875Z,92431.50
2022-08-18T09:41:19.972Z,92420.03
2022-08-18T09:48:08.731Z,92422.19
2022-08-18T09:51:17.525Z,92426.03
2022-08-18T09:54:21.402Z,92414.50
2022-08-18T09:57:19.545Z,92409.53
2022-08-18T10:00:30.485Z,92426.16
2022-08-18T10:03:26.439Z,92433.25
2022-08-18T10:06:20.811Z,92435.31
2022-08-18T10:09:35.986Z,92442.59
2022-08-18T10:12:51.589Z,92436.19
2022-08-18T10:15:47.812Z,92454.25
2022-08-18T10:18:59.253Z,92447.78
2022-08-18T10:22:09.680Z,92445.22
2022-08-18T10:24:57.298Z,92445.84
2022-08-18T10:27:54.245Z,92442.22
2022-08-18T10:31:10.083Z,92442.88
2022-08-18T10:34:24.527Z,92439.09
2022-08-18T10:37:16.925Z,92448.56
2022-08-18T10:40:06.042Z,92455.63
2022-08-18T10:42:54.429Z,92455.50
2022-08-18T10:45:59.409Z,92474.34
2022-08-18T10:49:04.463Z,92474.66
2022-08-18T10:52:24.418Z,92467.47
2022-08-18T10:55:48.178Z,92466.09
2022-08-18T10:58:49.155Z,92467.19
2022-08-18T11:01:48.671Z,92481.22
2022-08-18T11:04:38.750Z,92486.66
2022-08-18T11:07:24.765Z,92494.19
2022-08-18T11:10:29.684Z,92494.47
2022-08-18T11:13:21.764Z,92477.38
2022-08-18T11:16:15.375Z,92465.88
2022-08-18T11:19:06.968Z,92459.81
2022-08-18T11:21:53.717Z,92468.06
2022-08-18T11:24:44.707Z,92482.44
2022-08-18T11:27:31.830Z,92481.47
2022-08-18T11:30:15.569Z,92484.00
2022-08-18T11:33:02.919Z,92489.91
2022-08-18T11:35:48.810Z,92483.44
2022-08-18T11:38:33.707Z,92491.09
2022-08-18T11:41:20.414Z,92488.91
2022-08-18T11:44:07.336Z,92479.53
2022-08-18T11:46:52.182Z,92478.31
2022-08-18T11:49:38.405Z,92469.16
2022-08-18T11:52:29.618Z,92456.56
2022-08-18T11:55:23.818Z,92441.59
2022-08-18T11:58:12.569Z,92434.13
2022-08-18T12:01:01.635Z,92438.50
2022-08-18T12:03:49.566Z,92444.19
2022-08-18T12:06:33.708Z,92424.09
2022-08-18T12:09:30.605Z,92425.47
2022-08-18T12:12:28.156Z,92426.84
2022-08-18T12:15:29.581Z,92425.47
2022-08-18T12:18:29.778Z,92418.03
2022-08-18T12:21:13.584Z,92420.16
2022-08-18T12:23:56.773Z,92421.97
2022-08-18T12:26:47.416Z,92430.75
2022-08-18T12:32:49.030Z,92429.19
2022-08-18T12:35:41.927Z,92415.13
2022-08-18T12:38:25.284Z,92414.84
2022-08-18T12:41:11.873Z,92397.72
2022-08-18T12:43:58.641Z,92387.66
2022-08-18T12:46:44.058Z,92380.59
2022-08-18T12:49:28.156Z,92377.34
2022-08-18T12:52:12.964Z,92370.72
2022-08-18T12:54:57.264Z,92364.06
2022-08-18T12:57:52.364Z,92353.34
2022-08-18T13:00:37.048Z,92343.88
2022-08-18T13:03:21.583Z,92334.22
2022-08-18T13:06:06.045Z,92335.13
2022-08-18T13:08:50.129Z,92317.75
2022-08-18T13:11:33.393Z,92325.22
2022-08-18T13:14:17.554Z,92326.13
2022-08-18T13:17:00.754Z,92325.94
2022-08-18T13:19:45.892Z,92331.16
2022-08-18T13:22:32.118Z,92329.66
2022-08-18T13:25:32.509Z,92340.91
2022-08-18T13:28:21.124Z,92365.28
2022-08-18T13:31:05.336Z,92366.56
2022-08-18T13:33:56.916Z,92368.84
2022-08-18T13:36:48.527Z,92373.66
2022-08-18T13:39:34.541Z,92395.81
2022-08-18T13:42:26.765Z,92395.16
2022-08-18T13:45:24.835Z,92397.31
2022-08-18T13:48:09.309Z,92396.25
2022-08-18T13:50:55.721Z,92398.91
2022-08-18T13:53:51.105Z,92393.03
2022-08-18T13:56:42.372Z,92382.06
2022-08-18T13:59:35.022Z,92358.09
2022-08-18T14:02:18.241Z,92363.41
2022-08-18T14:05:01.654Z,92376.44
2022-08-18T14:07:46.594Z,92383.00
2022-08-18T14:10:32.138Z,92376.06
2022-08-18T14:13:20.547Z,92372.22
2022-08-18T14:16:08.634Z,92366.91
2022-08-18T14:19:11.297Z,92371.97
2022-08-18T14:22:13.229Z,92370.72
2022-08-18T14:25:13.729Z,92361.78
2022-08-18T14:27:59.043Z,92357.16
2022-08-18T14:30:50.859Z,92347.44
2022-08-18T14:33:51.842Z,92343.53
2022-08-18T14:36:36.806Z,92339.31
2022-08-18T14:39:19.864Z,92344.38
2022-08-18T14:42:03.215Z,92347.06
2022-08-18T14:44:48.104Z,92338.91
2022-08-18T14:47:31.482Z,92340.25
2022-08-18T14:50:15.215Z,92324.94
2022-08-18T14:53:02.495Z,92317.03
2022-08-18T14:55:45.578Z,92294.56
2022-08-18T14:58:33.713Z,92276.59
2022-08-18T15:01:18.528Z,92261.28
2022-08-18T15:04:18.547Z,92262.94
2022-08-18T15:07:02.946Z,92247.84
2022-08-18T15:10:15.139Z,92246.56
2022-08-18T15:12:57.801Z,92244.78
2022-08-18T15:15:50.791Z,92235.38
2022-08-18T15:18:36.200Z,92235.25
2022-08-18T15:21:38.945Z,92229.47
2022-08-18T15:24:39.647Z,92211.81
2022-08-18T15:27:42.773Z,92195.25
2022-08-18T15:30:25.970Z,92182.38
2022-08-18T15:33:10.481Z,92182.72
2022-08-18T15:36:01.296Z,92178.28
2022-08-18T15:38:44.470Z,92166.97
2022-08-18T15:41:34.140Z,92165.09
2022-08-18T15:44:19.384Z,92168.78
2022-08-18T15:47:04.686Z,92164.78
2022-08-18T15:49:47.708Z,92166.91
2022-08-18T15:52:32.890Z,92170.06
2022-08-18T15:55:17.966Z,92174.28
2022-08-18T15:58:02.203Z,92174.78
2022-08-18T16:00:47.930Z,92177.16
2022-08-18T16:03:31.713Z,92171.88
2022-08-18T16:06:16.527Z,92179.28
2022-08-18T16:09:06.006Z,92171.13
2022-08-18T16:11:49.281Z,92170.88
2022-08-18T16:14:32.356Z,92168.00
2022-08-18T16:17:23.695Z,92183.56
2022-08-18T16:20:08.460Z,92178.06
2022-08-18T16:22:52.480Z,92187.31
2022-08-18T16:25:39.168Z,92189.44
2022-08-18T16:28:34.847Z,92183.44
2022-08-18T16:31:20.073Z,92175.28
2022-08-18T16:34:03.248Z,92178.22
2022-08-18T16:36:46.296Z,92175.09
2022-08-18T16:39:33.704Z,92167.72
2022-08-18T16:42:18.258Z,92172.75
2022-08-18T16:45:01.561Z,92165.63
2022-08-18T16:47:44.600Z,92165.34
2022-08-18T16:50:28.123Z,92159.81
2022-08-18T16:53:11.231Z,92165.00
2022-08-18T16:55:54.365Z,92159.72
2022-08-18T16:58:56.297Z,92154.16
2022-08-18T17:01:57.429Z,92161.41
2022-08-18T17:04:41.649Z,92164.44
2022-08-18T17:07:25.090Z,92158.88
2022-08-18T17:10:09.445Z,92154.81
2022-08-18T17:12:52.594Z,92153.56
2022-08-18T17:15:37.037Z,92150.72
2022-08-18T17:18:20.986Z,92144.66
2022-08-18T17:21:05.065Z,92158.13
2022-08-18T17:23:49.280Z,92162.25
2022-08-18T17:26:43.526Z,92150.63
2022-08-18T17:29:33.251Z,92147.19
2022-08-18T17:32:23.641Z,92145.28
2022-08-18T17:35:09.491Z,92148.41
2022-08-18T17:37:59.729Z,92145.03
2022-08-18T17:40:46.047Z,92144.56
2022-08-18T17:43:32.891Z,92134.25
2022-08-18T17:46:25.968Z,92145.19
2022-08-18T17:49:15.397Z,92140.44
2022-08-18T17:51:57.694Z,92143.59
2022-08-18T17:54:49.404Z,92143.28
2022-08-18T17:57:38.117Z,92155.31
2022-08-18T18:00:22.268Z,92152.44
2022-08-18T18:03:06.015Z,92160.38
2022-08-18T18:05:59.167Z,92159.00
2022-08-18T18:08:55.433Z,92156.75
2022-08-18T18:11:41.328Z,92167.59
2022-08-18T18:14:27.820Z,92172.88
2022-08-18T18:17:16.424Z,92176.63
2022-08-18T18:20:15.623Z,92183.53
2022-08-18T18:23:17.663Z,92197.09
2022-08-18T18:26:00.748Z,92197.81
2022-08-18T18:28:43.767Z,92196.41
2022-08-18T18:31:29.255Z,92211.63
2022-08-18T18:34:23.487Z,92204.56
2022-08-18T18:37:26.890Z,92207.97
2022-08-18T18:40:22.400Z,92206.63
2022-08-18T18:43:24.063Z,92213.59
2022-08-18T18:46:30.299Z,92219.66
2022-08-18T18:49:20.133Z,92229.63
2022-08-18T18:52:10.912Z,92228.53
2022-08-18T18:55:02.541Z,92224.06
2022-08-18T18:58:02.892Z,92225.25
2022-08-18T19:00:54.119Z,92230.81
2022-08-18T19:03:47.821Z,92235.63
2022-08-18T19:06:37.273Z,92241.38
2022-08-18T19:09:25.262Z,92244.19
2022-08-18T19:12:17.457Z,92235.94
2022-08-18T19:15:08.426Z,92234.97
2022-08-18T19:17:57.314Z,92243.84
2022-08-18T19:20:43.849Z,92238.38
2022-08-18T19:23:55.312Z,92236.22
2022-08-18T19:26:42.498Z,92246.50
2022-08-18T19:29:29.952Z,92241.31
2022-08-18T19:32:19.581Z,92242.94
2022-08-18T19:35:10.471Z,92240.44
2022-08-18T19:38:10.349Z,92247.16
2022-08-18T19:41:00.442Z,92245.34
2022-08-18T19:43:56.771Z,92245.34
2022-08-18T19:46:45.300Z,92250.00
2022-08-18T19:49:36.138Z,92261.81
2022-08-18T19:52:46.076Z,92258.19
2022-08-18T19:55:40.467Z,92265.13
2022-08-18T19:58:49.157Z,92261.72
2022-08-18T20:01:55.254Z,92264.69
2022-08-18T20:04:52.924Z,92266.16
2022-08-18T20:07:56.392Z,92267.97
2022-08-18T20:11:09.228Z,92267.84
2022-08-18T20:13:56.846Z,92271.50
2022-08-18T20:16:44.880Z,92285.03
2022-08-18T20:20:13.548Z,92285.91
2022-08-18T20:23:00.218Z,92285.53
2022-08-18T20:25:45.068Z,92289.84
2022-08-18T20:28:35.833Z,92283.16
2022-08-18T20:31:18.872Z,92292.34
2022-08-18T20:34:14.147Z,92287.91
2022-08-18T20:36:59.238Z,92300.75
2022-08-18T20:39:45.665Z,92301.59
2022-08-18T20:42:57.387Z,92309.75
2022-08-18T20:45:56.599Z,92299.63
2022-08-18T20:49:05.975Z,92299.06
2022-08-18T20:51:55.640Z,92293.50
2022-08-18T20:54:58.242Z,92287.84
2022-08-18T20:57:41.884Z,92295.03
2022-08-18T21:00:27.303Z,92297.84
2022-08-18T21:03:14.773Z,92295.34
2022-08-18T21:06:00.393Z,92305.34
2022-08-18T21:08:51.108Z,92316.72
2022-08-18T21:11:42.984Z,92321.81
2022-08-18T21:14:30.037Z,92317.72
2022-08-18T21:17:15.416Z,92322.47
2022-08-18T21:20:04.489Z,92320.66
2022-08-18T21:22:47.985Z,92315.41
2022-08-18T21:25:32.748Z,92339.97
2022-08-18T21:28:18.244Z,92341.00
2022-08-18T21:31:43.040Z,92347.25
2022-08-18T21:34:08.531Z,92353.97
2022-08-18T21:36:54.721Z,92350.81
2022-08-18T21:39:52.293Z,92358.09
2022-08-18T21:42:43.380Z,92354.66
2022-08-18T21:45:29.780Z,92359.31
2022-08-18T21:48:13.052Z,92367.66
2022-08-18T21:51:01.176Z,92366.63
2022-08-18T21:53:44.602Z,92361.06
2022-08-18T21:56:31.437Z,92371.19
2022-08-18T21:59:17.846Z,92371.75
2022-08-18T22:02:02.338Z,92354.22
2022-08-18T22:04:48.426Z,92357.84
2022-08-18T22:07:35.623Z,92352.00
2022-08-18T22:10:46.206Z,92355.66
2022-08-18T22:13:47.698Z,92364.25
2022-08-18T22:16:36.230Z,92378.91
2022-08-18T22:19:27.702Z,92376.72
2022-08-18T22:22:24.696Z,92364.69
2022-08-18T22:25:11.663Z,92371.72
2022-08-18T22:27:57.032Z,92365.50
2022-08-18T22:30:42.059Z,92368.53
2022-08-18T22:33:25.161Z,92375.66
2022-08-18T22:36:11.499Z,92379.94
2022-08-18T22:38:55.418Z,92381.63
2022-08-18T22:41:39.264Z,92369.94
2022-08-18T22:44:23.213Z,92363.28
2022-08-18T22:47:07.604Z,92364.44
2022-08-18T22:49:50.788Z,92375.44
2022-08-18T22:52:38.159Z,92367.19
2022-08-18T22:55:22.064Z,92347.69
2022-08-18T22:58:07.281Z,92358.78
2022-08-18T23:00:52.434Z,92348.34
2022-08-18T23:03:44.277Z,92357.53
2022-08-18T23:06:28.628Z,92354.69
2022-08-18T23:09:13.025Z,92338.84
2022-08-18T23:11:57.849Z,92333.03
2022-08-18T23:14:41.462Z,92323.63
2022-08-18T23:17:24.566Z,92307.63
2022-08-18T23:20:11.442Z,92307.34
2022-08-18T23:22:54.658Z,92323.13
2022-08-18T23:25:39.546Z,92324.16
2022-08-18T23:28:23.166Z,92323.94
2022-08-18T23:31:06.575Z,92316.31
2022-08-18T23:33:49.615Z,92301.56
2022-08-18T23:36:33.912Z,92272.03
2022-08-18T23:39:17.006Z,92255.34
2022-08-18T23:42:02.301Z,92258.66
2022-08-18T23:44:45.681Z,92256.72
2022-08-18T23:47:29.828Z,92265.88
2022-08-18T23:50:13.015Z,92262.28
2022-08-18T23:52:57.651Z,92265.78
2022-08-18T23:55:41.020Z,92274.81
2022-08-18T23:58:25.456Z,92271.44
